createdAt,value
2018-07-14T00:00:17.679Z,99.90
2018-07-14T00:02:46.750Z,99.90
2018-07-14T00:05:15.965Z,99.90
2018-07-14T00:07:45.561Z,99.90
2018-07-14T00:10:14.678Z,99.90
2018-07-14T00:12:43.838Z,99.90
2018-07-14T00:15:12.951Z,99.90
2018-07-14T00:17:42.094Z,99.90
2018-07-14T00:20:11.238Z,99.90
2018-07-14T00:22:40.997Z,99.90
2018-07-14T00:25:10.134Z,99.90
2018-07-14T00:27:39.342Z,99.90
2018-07-14T00:30:08.527Z,99.90
2018-07-14T00:32:38.250Z,99.90
2018-07-14T00:35:07.361Z,99.90
2018-07-14T00:37:36.515Z,99.90
2018-07-14T00:40:05.819Z,99.90
2018-07-14T00:45:04.423Z,99.90
2018-07-14T00:47:33.509Z,99.90
2018-07-14T00:50:02.614Z,99.90
2018-07-14T00:52:32.307Z,99.90
2018-07-14T00:55:01.438Z,99.90
2018-07-14T00:57:30.635Z,99.90
2018-07-14T00:59:59.878Z,99.90
2018-07-14T01:02:32.818Z,99.90
2018-07-14T01:05:02.663Z,99.90
2018-07-14T01:07:32.556Z,99.90
2018-07-14T01:10:02.751Z,99.90
2018-07-14T01:12:32.457Z,99.90
2018-07-14T01:17:30.797Z,99.90
2018-07-14T01:20:00.226Z,99.90
2018-07-14T01:22:29.327Z,99.90
2018-07-14T01:24:58.394Z,99.90
2018-07-14T01:27:27.510Z,99.90
2018-07-14T01:29:56.606Z,99.90
2018-07-14T01:32:25.693Z,99.90
2018-07-14T01:34:54.942Z,99.90
2018-07-14T01:37:24.037Z,99.90
2018-07-14T01:39:53.215Z,99.90
2018-07-14T01:42:22.281Z,99.90
2018-07-14T01:44:51.360Z,99.90
2018-07-14T01:47:20.446Z,99.90
2018-07-14T01:49:49.519Z,99.90
2018-07-14T01:52:18.709Z,99.90
2018-07-14T01:54:47.767Z,99.90
2018-07-14T01:57:16.835Z,99.90
2018-07-14T01:59:45.966Z,99.90
2018-07-14T02:02:15.770Z,99.90
2018-07-14T02:04:45.875Z,99.90
2018-07-14T02:07:14.970Z,99.90
2018-07-14T02:09:44.066Z,99.90
2018-07-14T02:12:13.875Z,99.90
2018-07-14T02:14:42.693Z,99.90
2018-07-14T02:17:11.771Z,99.90
2018-07-14T02:19:40.901Z,99.90
2018-07-14T02:22:09.955Z,99.90
2018-07-14T02:24:39.110Z,99.90
2018-07-14T02:27:08.231Z,99.90
2018-07-14T02:29:37.294Z,99.90
2018-07-14T02:32:06.698Z,99.90
2018-07-14T02:34:36.193Z,99.90
2018-07-14T02:37:05.614Z,99.90
2018-07-14T02:39:35.106Z,99.90
2018-07-14T02:44:34.019Z,99.90
2018-07-14T02:47:03.576Z,99.90
2018-07-14T02:49:33.057Z,99.90
2018-07-14T02:52:02.592Z,99.90
2018-07-14T02:54:31.463Z,99.90
2018-07-14T02:57:00.590Z,99.90
2018-07-14T02:59:30.051Z,99.90
2018-07-14T03:01:59.211Z,99.90
2018-07-14T03:04:28.486Z,99.90
2018-07-14T03:06:57.568Z,99.90
2018-07-14T03:09:26.631Z,99.90
2018-07-14T03:11:55.683Z,99.90
2018-07-14T03:14:25.173Z,99.90
2018-07-14T03:16:54.296Z,99.90
2018-07-14T03:19:23.414Z,99.90
2018-07-14T03:21:52.728Z,99.90
2018-07-14T03:24:21.801Z,99.90
2018-07-14T03:26:50.897Z,99.90
2018-07-14T03:29:20.023Z,99.90
2018-07-14T03:31:49.098Z,99.90
2018-07-14T03:34:18.195Z,99.90
2018-07-14T03:36:47.425Z,99.90
2018-07-14T03:39:16.431Z,99.90
2018-07-14T03:41:45.511Z,99.90
2018-07-14T03:44:15.178Z,99.90
2018-07-14T03:46:44.242Z,99.90
2018-07-14T03:49:13.315Z,99.90
2018-07-14T03:51:42.390Z,99.90
2018-07-14T03:54:11.472Z,99.90
2018-07-14T03:56:40.598Z,99.90
2018-07-14T03:59:09.675Z,99.90
2018-07-14T04:01:38.747Z,99.90
2018-07-14T04:04:07.835Z,99.90
2018-07-14T04:06:36.995Z,99.90
2018-07-14T04:09:07.141Z,99.90
2018-07-14T04:11:36.438Z,99.90
2018-07-14T04:14:05.895Z,99.90
2018-07-14T04:16:34.998Z,99.90
2018-07-14T04:19:04.211Z,99.90
2018-07-14T04:21:33.474Z,99.90
2018-07-14T04:24:02.855Z,99.90
2018-07-14T04:26:32.205Z,99.90
2018-07-14T04:29:01.278Z,99.90
2018-07-14T04:31:30.342Z,99.90
2018-07-14T04:33:59.535Z,99.90
2018-07-14T04:36:28.606Z,99.90
2018-07-14T04:38:57.726Z,99.90
2018-07-14T04:41:26.870Z,99.90
2018-07-14T04:43:55.935Z,99.90
2018-07-14T04:46:25.003Z,99.90
2018-07-14T04:48:54.107Z,99.90
2018-07-14T04:51:23.178Z,99.90
2018-07-14T04:53:52.255Z,99.90
2018-07-14T04:56:21.317Z,99.90
2018-07-14T04:58:50.898Z,99.90
2018-07-14T05:01:20.319Z,99.90
2018-07-14T05:03:49.369Z,99.90
2018-07-14T05:06:18.857Z,99.90
2018-07-14T05:08:47.928Z,99.90
2018-07-14T05:11:16.996Z,99.90
2018-07-14T05:13:46.046Z,99.90
2018-07-14T05:16:15.235Z,99.90
2018-07-14T05:18:44.349Z,99.90
2018-07-14T05:21:14.023Z,99.90
2018-07-14T05:23:43.047Z,99.90
2018-07-14T05:26:12.186Z,99.90
2018-07-14T05:28:41.336Z,99.90
2018-07-14T05:31:10.342Z,99.90
2018-07-14T05:33:39.482Z,99.90
2018-07-14T05:36:09.579Z,99.90
2018-07-14T05:38:39.150Z,99.90
2018-07-14T05:41:08.218Z,99.90
2018-07-14T05:43:37.273Z,99.90
2018-07-14T05:46:06.431Z,99.90
2018-07-14T05:48:35.573Z,99.90
2018-07-14T05:51:04.708Z,99.90
2018-07-14T05:53:33.798Z,99.90
2018-07-14T05:56:02.859Z,99.90
2018-07-14T05:58:31.934Z,99.90
2018-07-14T06:01:01.047Z,99.90
2018-07-14T06:03:30.107Z,99.90
2018-07-14T06:05:59.170Z,98.60
2018-07-14T06:08:28.242Z,99.20
2018-07-14T06:10:57.663Z,99.40
2018-07-14T06:13:26.726Z,99.40
2018-07-14T06:15:55.902Z,98.80
2018-07-14T06:18:25.684Z,97.90
2018-07-14T06:20:54.443Z,97.40
2018-07-14T06:23:23.508Z,97.40
2018-07-14T06:25:52.684Z,97.30
2018-07-14T06:28:22.178Z,97.30
2018-07-14T06:30:51.266Z,95.90
2018-07-14T06:33:20.338Z,95.70
2018-07-14T06:35:50.886Z,96.30
2018-07-14T06:38:20.076Z,97.10
2018-07-14T06:40:49.317Z,97.80
2018-07-14T06:43:18.442Z,98.60
2018-07-14T06:45:47.503Z,99.50
2018-07-14T06:48:16.612Z,99.90
2018-07-14T06:50:45.699Z,99.90
2018-07-14T06:53:14.758Z,99.90
2018-07-14T06:55:43.818Z,99.90
2018-07-14T06:58:12.899Z,99.90
2018-07-14T07:00:41.959Z,99.90
2018-07-14T07:03:11.005Z,99.90
2018-07-14T07:05:40.074Z,98.50
2018-07-14T07:08:09.138Z,97.60
2018-07-14T07:10:38.243Z,96.20
2018-07-14T07:13:07.358Z,95.10
2018-07-14T07:15:36.435Z,94.20
2018-07-14T07:18:05.715Z,93.10
2018-07-14T07:20:34.965Z,92.40
2018-07-14T07:23:04.499Z,91.60
2018-07-14T07:25:33.617Z,91.50
2018-07-14T07:28:02.763Z,91.20
2018-07-14T07:30:31.814Z,91.00
2018-07-14T07:33:01.059Z,91.00
2018-07-14T07:35:30.099Z,90.70
2018-07-14T07:37:59.154Z,90.30
2018-07-14T07:40:28.259Z,90.20
2018-07-14T07:42:57.347Z,90.20
2018-07-14T07:45:26.423Z,91.80
2018-07-14T07:47:56.162Z,92.20
2018-07-14T07:50:25.678Z,92.10
2018-07-14T07:52:55.678Z,90.60
2018-07-14T07:55:25.194Z,87.70
2018-07-14T07:57:54.488Z,84.60
2018-07-14T08:00:23.858Z,84.50
2018-07-14T08:02:53.590Z,84.10
2018-07-14T08:05:22.703Z,83.40
2018-07-14T08:07:51.762Z,80.70
2018-07-14T08:10:20.831Z,76.50
2018-07-14T08:12:49.926Z,76.20
2018-07-14T08:15:18.978Z,75.30
2018-07-14T08:17:48.039Z,73.30
2018-07-14T08:20:17.270Z,71.00
2018-07-14T08:22:47.205Z,68.80
2018-07-14T08:25:16.224Z,68.60
2018-07-14T08:27:45.350Z,65.40
2018-07-14T08:30:14.476Z,61.70
2018-07-14T08:32:43.583Z,61.50
2018-07-14T08:35:13.407Z,61.30
2018-07-14T08:37:42.358Z,60.60
2018-07-14T08:40:11.739Z,58.80
2018-07-14T08:42:40.804Z,59.20
2018-07-14T08:45:09.890Z,60.80
2018-07-14T08:47:39.922Z,59.10
2018-07-14T08:50:08.674Z,56.10
2018-07-14T08:52:37.802Z,54.90
2018-07-14T08:55:07.393Z,56.70
2018-07-14T08:57:38.579Z,55.80
2018-07-14T09:00:08.110Z,54.50
2018-07-14T09:02:37.814Z,52.90
2018-07-14T09:05:07.354Z,53.40
2018-07-14T09:07:37.031Z,51.60
2018-07-14T09:10:06.810Z,51.60
2018-07-14T09:12:36.062Z,50.80
2018-07-14T09:15:05.163Z,50.50
2018-07-14T09:17:34.205Z,52.20
2018-07-14T09:20:04.323Z,52.60
2018-07-14T09:22:33.979Z,52.00
2018-07-14T09:25:03.198Z,52.90
2018-07-14T09:27:32.431Z,52.80
2018-07-14T09:30:01.183Z,53.80
2018-07-14T09:32:30.823Z,54.70
2018-07-14T09:35:00.606Z,54.80
2018-07-14T09:37:30.601Z,55.20
2018-07-14T09:39:59.643Z,56.30
2018-07-14T09:42:28.682Z,56.20
2018-07-14T09:44:57.755Z,55.20
2018-07-14T09:47:26.962Z,53.10
2018-07-14T09:49:56.009Z,55.00
2018-07-14T09:52:25.078Z,55.20
2018-07-14T09:54:54.194Z,54.60
2018-07-14T09:57:23.275Z,58.00
2018-07-14T09:59:53.246Z,57.20
2018-07-14T10:02:23.442Z,54.40
2018-07-14T10:04:53.207Z,53.20
2018-07-14T10:07:22.526Z,54.40
2018-07-14T10:09:51.803Z,53.40
2018-07-14T10:12:22.281Z,54.10
2018-07-14T10:14:51.651Z,52.10
2018-07-14T10:17:21.113Z,50.90
2018-07-14T10:19:49.801Z,53.10
2018-07-14T10:22:19.802Z,51.60
2018-07-14T10:24:48.803Z,52.30
2018-07-14T10:27:17.846Z,53.70
2018-07-14T10:29:46.897Z,53.20
2018-07-14T10:32:15.954Z,53.00
2018-07-14T10:34:45.071Z,50.80
2018-07-14T10:37:14.147Z,49.40
2018-07-14T10:39:43.270Z,47.70
2018-07-14T10:42:12.445Z,46.60
2018-07-14T10:44:41.698Z,44.60
2018-07-14T10:47:10.755Z,44.80
2018-07-14T10:49:39.819Z,44.90
2018-07-14T10:52:09.342Z,45.40
2018-07-14T10:54:38.998Z,45.30
2018-07-14T10:57:08.509Z,46.10
2018-07-14T10:59:37.565Z,44.30
2018-07-14T11:02:06.764Z,44.00
2018-07-14T11:04:35.587Z,44.60
2018-07-14T11:07:04.770Z,45.90
2018-07-14T11:09:33.968Z,48.30
2018-07-14T11:12:03.092Z,49.10
2018-07-14T11:14:32.134Z,49.00
2018-07-14T11:17:01.198Z,48.90
2018-07-14T11:19:30.265Z,48.30
2018-07-14T11:21:59.330Z,46.80
2018-07-14T11:24:28.538Z,46.80
2018-07-14T11:26:57.819Z,45.60
2018-07-14T11:29:27.006Z,46.30
2018-07-14T11:31:56.238Z,45.30
2018-07-14T11:34:25.476Z,45.20
2018-07-14T11:36:54.446Z,45.40
2018-07-14T11:39:23.485Z,44.40
2018-07-14T11:41:52.554Z,43.00
2018-07-14T11:44:21.605Z,43.10
2018-07-14T11:46:50.958Z,43.90
2018-07-14T11:49:20.295Z,44.50
2018-07-14T11:51:49.385Z,44.60
2018-07-14T11:54:18.812Z,45.00
2018-07-14T11:56:47.872Z,44.70
2018-07-14T11:59:17.022Z,45.30
2018-07-14T12:01:46.064Z,46.10
2018-07-14T12:04:15.138Z,48.40
2018-07-14T12:06:44.206Z,49.00
2018-07-14T12:09:13.240Z,49.20
2018-07-14T12:11:42.510Z,50.60
2018-07-14T12:14:11.769Z,53.50
2018-07-14T12:16:40.386Z,55.30
2018-07-14T12:19:09.478Z,55.80
2018-07-14T12:21:38.554Z,54.30
2018-07-14T12:24:07.490Z,54.80
2018-07-14T12:26:36.609Z,55.60
2018-07-14T12:29:05.698Z,55.30
2018-07-14T12:31:34.767Z,54.70
2018-07-14T12:34:03.818Z,56.50
2018-07-14T12:36:32.948Z,55.00
2018-07-14T12:39:01.965Z,54.40
2018-07-14T12:41:31.019Z,51.80
2018-07-14T12:44:00.162Z,47.70
2018-07-14T12:46:29.207Z,44.50
2018-07-14T12:48:58.258Z,42.50
2018-07-14T12:51:27.366Z,42.50
2018-07-14T12:53:56.440Z,42.20
2018-07-14T12:56:25.478Z,42.80
2018-07-14T12:58:54.563Z,44.00
2018-07-14T13:01:23.623Z,45.00
2018-07-14T13:03:52.737Z,48.60
2018-07-14T13:06:21.799Z,50.70
2018-07-14T13:08:50.862Z,50.60
2018-07-14T13:11:20.182Z,51.50
2018-07-14T13:13:49.266Z,51.00
2018-07-14T13:16:18.321Z,49.90
2018-07-14T13:18:47.443Z,51.60
2018-07-14T13:21:16.601Z,51.60
2018-07-14T13:23:46.574Z,51.40
2018-07-14T13:26:15.843Z,51.00
2018-07-14T13:28:45.023Z,49.70
2018-07-14T13:31:13.636Z,48.40
2018-07-14T13:33:42.714Z,47.40
2018-07-14T13:36:11.828Z,46.50
2018-07-14T13:38:51.260Z,46.40
2018-07-14T13:41:09.910Z,45.10
2018-07-14T13:43:39.026Z,43.70
2018-07-14T13:46:08.115Z,44.80
2018-07-14T13:48:37.183Z,46.20
2018-07-14T13:51:06.338Z,45.50
2018-07-14T13:53:35.411Z,47.50
2018-07-14T13:56:04.469Z,48.00
2018-07-14T13:58:33.554Z,47.10
2018-07-14T14:01:02.591Z,47.80
2018-07-14T14:03:31.634Z,47.20
2018-07-14T14:06:00.708Z,47.30
2018-07-14T14:08:29.745Z,47.20
2018-07-14T14:10:58.794Z,46.80
2018-07-14T14:13:28.858Z,45.10
2018-07-14T14:15:57.942Z,46.30
2018-07-14T14:18:27.007Z,46.10
2018-07-14T14:20:56.083Z,45.80
2018-07-14T14:23:25.134Z,45.40
2018-07-14T14:25:54.203Z,47.30
2018-07-14T14:30:52.061Z,48.90
2018-07-14T14:33:21.134Z,49.20
2018-07-14T14:35:50.214Z,50.20
2018-07-14T14:38:18.864Z,49.80
2018-07-14T14:40:47.954Z,49.40
2018-07-14T14:43:17.014Z,49.80
2018-07-14T14:45:46.063Z,50.30
2018-07-14T14:48:15.136Z,52.10
2018-07-14T14:50:44.224Z,51.20
2018-07-14T14:53:14.323Z,50.00
2018-07-14T14:55:43.667Z,48.30
2018-07-14T14:58:12.699Z,46.50
2018-07-14T15:00:41.751Z,46.30
2018-07-14T15:03:10.876Z,46.10
2018-07-14T15:05:39.963Z,45.90
2018-07-14T15:08:09.006Z,44.70
2018-07-14T15:10:38.103Z,43.70
2018-07-14T15:13:07.164Z,41.80
2018-07-14T15:15:36.256Z,42.10
2018-07-14T15:18:05.345Z,42.10
2018-07-14T15:20:34.422Z,42.20
2018-07-14T15:23:03.490Z,41.90
2018-07-14T15:25:32.564Z,42.20
2018-07-14T15:28:01.611Z,41.10
2018-07-14T15:30:30.870Z,40.70
2018-07-14T15:33:00.302Z,41.20
2018-07-14T15:35:29.215Z,40.80
2018-07-14T15:37:58.270Z,40.90
2018-07-14T15:40:27.315Z,41.40
2018-07-14T15:42:56.387Z,42.80
2018-07-14T15:45:25.434Z,45.40
2018-07-14T15:47:54.478Z,48.80
2018-07-14T15:50:23.959Z,50.50
2018-07-14T15:52:53.320Z,51.00
2018-07-14T15:55:22.087Z,50.80
2018-07-14T15:57:51.315Z,50.90
2018-07-14T16:00:20.519Z,51.20
2018-07-14T16:02:49.472Z,50.90
2018-07-14T16:05:18.745Z,51.20
2018-07-14T16:07:47.430Z,51.10
2018-07-14T16:10:16.550Z,51.20
2018-07-14T16:12:45.594Z,49.40
2018-07-14T16:15:14.689Z,50.00
2018-07-14T16:17:43.793Z,50.70
2018-07-14T16:20:12.872Z,51.60
2018-07-14T16:22:41.982Z,52.60
2018-07-14T16:25:11.071Z,53.40
2018-07-14T16:27:40.134Z,52.70
2018-07-14T16:30:09.394Z,53.30
2018-07-14T16:32:38.670Z,52.70
2018-07-14T16:35:07.908Z,52.40
2018-07-14T16:37:37.146Z,51.70
2018-07-14T16:40:06.427Z,51.50
2018-07-14T16:42:35.663Z,52.30
2018-07-14T16:45:05.494Z,52.10
2018-07-14T16:47:34.727Z,52.30
2018-07-14T16:50:04.019Z,52.10
2018-07-14T16:52:33.173Z,52.50
2018-07-14T16:55:02.463Z,52.50
2018-07-14T16:57:31.721Z,54.00
2018-07-14T17:00:00.895Z,55.50
2018-07-14T17:02:29.744Z,55.70
2018-07-14T17:04:59.006Z,55.30
2018-07-14T17:07:27.603Z,55.30
2018-07-14T17:09:56.935Z,54.30
2018-07-14T17:12:26.019Z,53.90
2018-07-14T17:14:55.095Z,54.50
2018-07-14T17:17:24.183Z,53.90
2018-07-14T17:19:53.226Z,53.70
2018-07-14T17:22:22.292Z,53.60
2018-07-14T17:24:51.368Z,54.80
2018-07-14T17:27:20.620Z,54.60
2018-07-14T17:29:50.054Z,54.70
2018-07-14T17:32:19.402Z,55.10
2018-07-14T17:34:48.028Z,55.40
2018-07-14T17:37:17.088Z,56.30
2018-07-14T17:39:46.215Z,56.50
2018-07-14T17:42:15.273Z,57.40
2018-07-14T17:44:44.162Z,57.80
2018-07-14T17:47:13.245Z,58.50
2018-07-14T17:49:42.310Z,58.70
2018-07-14T17:52:11.422Z,58.00
2018-07-14T17:54:40.839Z,58.70
2018-07-14T17:57:09.867Z,59.60
2018-07-14T17:59:39.547Z,60.40
2018-07-14T18:02:08.862Z,60.60
2018-07-14T18:04:37.966Z,61.20
2018-07-14T18:07:07.272Z,62.30
2018-07-14T18:09:36.279Z,62.00
2018-07-14T18:12:05.478Z,62.90
2018-07-14T18:14:34.560Z,63.10
2018-07-14T18:17:03.610Z,62.40
2018-07-14T18:19:32.675Z,64.60
2018-07-14T18:22:01.726Z,64.20
2018-07-14T18:24:30.766Z,67.20
2018-07-14T18:27:00.039Z,68.20
2018-07-14T18:29:29.402Z,69.20
2018-07-14T18:31:58.678Z,68.80
2018-07-14T18:34:28.013Z,68.90
2018-07-14T18:36:57.299Z,68.50
2018-07-14T18:39:26.598Z,68.60
2018-07-14T18:41:55.894Z,68.40
2018-07-14T18:44:24.727Z,69.50
2018-07-14T18:46:54.079Z,70.20
2018-07-14T18:49:23.487Z,70.70
2018-07-14T18:51:52.702Z,72.10
2018-07-14T18:54:21.590Z,72.60
2018-07-14T18:56:50.839Z,73.50
2018-07-14T18:59:19.906Z,74.00
2018-07-14T19:01:48.958Z,75.40
2018-07-14T19:04:18.060Z,77.20
2018-07-14T19:06:47.354Z,78.40
2018-07-14T19:09:17.101Z,79.50
2018-07-14T19:11:46.992Z,79.20
2018-07-14T19:14:16.683Z,81.50
2018-07-14T19:16:45.800Z,82.60
2018-07-14T19:19:14.863Z,83.10
2018-07-14T19:21:43.958Z,86.20
2018-07-14T19:24:13.106Z,88.30
2018-07-14T19:26:42.198Z,89.70
2018-07-14T19:29:11.294Z,90.00
2018-07-14T19:31:40.459Z,91.00
2018-07-14T19:34:09.522Z,91.60
2018-07-14T19:36:38.781Z,92.10
2018-07-14T19:39:08.547Z,92.50
2018-07-14T19:41:38.462Z,93.90
2018-07-14T19:44:07.686Z,94.70
2018-07-14T19:46:37.559Z,96.10
2018-07-14T19:49:08.850Z,95.60
2018-07-14T19:51:38.427Z,96.60
2018-07-14T19:54:07.776Z,96.20
2018-07-14T19:56:37.289Z,97.60
2018-07-14T19:59:07.895Z,97.80
2018-07-14T20:01:37.240Z,99.10
2018-07-14T20:04:07.087Z,99.70
2018-07-14T20:06:36.712Z,99.90
2018-07-14T20:09:06.645Z,99.90
2018-07-14T20:11:35.752Z,99.90
2018-07-14T20:14:04.815Z,99.90
2018-07-14T20:16:33.903Z,99.90
2018-07-14T20:19:02.965Z,99.90
2018-07-14T20:21:32.023Z,99.90
2018-07-14T20:24:01.118Z,99.90
2018-07-14T20:26:30.382Z,99.90
2018-07-14T20:28:59.480Z,99.90
2018-07-14T20:31:34.758Z,99.90
2018-07-14T20:34:04.155Z,99.90
2018-07-14T20:36:33.235Z,99.90
2018-07-14T20:39:02.395Z,99.90
2018-07-14T20:41:32.434Z,99.90
2018-07-14T20:44:00.986Z,99.90
2018-07-14T20:46:30.163Z,99.90
2018-07-14T20:48:59.247Z,99.90
2018-07-14T20:51:28.670Z,99.90
2018-07-14T20:53:57.941Z,99.90
2018-07-14T20:56:27.912Z,99.90
2018-07-14T20:58:57.026Z,99.90
2018-07-14T21:01:25.777Z,99.90
2018-07-14T21:03:54.931Z,99.90
2018-07-14T21:06:24.036Z,99.90
2018-07-14T21:08:53.166Z,99.90
2018-07-14T21:11:25.086Z,99.90
2018-07-14T21:13:54.961Z,99.90
2018-07-14T21:18:59.402Z,99.90
2018-07-14T21:21:28.474Z,99.90
2018-07-14T21:23:57.542Z,99.90
2018-07-14T21:26:26.923Z,99.90
2018-07-14T21:28:56.558Z,99.90
2018-07-14T21:31:25.963Z,99.90
2018-07-14T21:33:55.323Z,99.90
2018-07-14T21:36:24.985Z,99.90
2018-07-14T21:38:55.048Z,99.90
2018-07-14T21:41:23.695Z,99.90
2018-07-14T21:43:53.238Z,99.90
2018-07-14T21:46:22.962Z,99.90
2018-07-14T21:48:52.015Z,99.90
2018-07-14T21:51:21.109Z,99.90
2018-07-14T21:53:50.206Z,99.90
2018-07-14T21:56:19.312Z,99.90
2018-07-14T21:58:48.387Z,99.90
2018-07-14T22:01:23.834Z,99.90
2018-07-14T22:03:53.175Z,99.90
2018-07-14T22:06:22.259Z,99.90
2018-07-14T22:08:52.219Z,99.90
2018-07-14T22:11:21.295Z,99.90
2018-07-14T22:13:50.459Z,99.90
2018-07-14T22:16:19.524Z,99.90
2018-07-14T22:18:48.606Z,99.90
2018-07-14T22:21:18.467Z,99.90
2018-07-14T22:23:47.566Z,99.90
2018-07-14T22:26:16.641Z,99.90
2018-07-14T22:28:45.718Z,99.90
2018-07-14T22:31:14.894Z,99.90
2018-07-14T22:33:43.946Z,99.90
2018-07-14T22:36:13.033Z,99.90
2018-07-14T22:38:42.102Z,99.90
2018-07-14T22:41:11.193Z,99.90
2018-07-14T22:43:40.258Z,99.90
2018-07-14T22:46:09.378Z,99.90
2018-07-14T22:48:38.550Z,99.90
2018-07-14T22:51:07.606Z,99.90
2018-07-14T22:53:36.724Z,99.90
2018-07-14T22:56:05.807Z,99.90
2018-07-14T22:58:34.931Z,99.90
2018-07-14T23:01:04.339Z,99.90
2018-07-14T23:03:33.817Z,99.90
2018-07-14T23:06:02.887Z,99.90
2018-07-14T23:08:32.021Z,99.90
2018-07-14T23:11:01.066Z,99.90
2018-07-14T23:13:30.475Z,99.90
2018-07-14T23:15:59.539Z,99.90
2018-07-14T23:18:28.638Z,99.90
2018-07-14T23:20:57.759Z,99.90
2018-07-14T23:23:26.819Z,99.90
2018-07-14T23:25:58.870Z,99.90
2018-07-14T23:28:27.942Z,99.90
2018-07-14T23:30:57.436Z,99.90
2018-07-14T23:33:26.487Z,99.90
2018-07-14T23:35:55.627Z,99.90
2018-07-14T23:38:24.729Z,99.90
2018-07-14T23:40:53.791Z,99.90
2018-07-14T23:43:22.934Z,99.90
2018-07-14T23:45:52.274Z,99.90
2018-07-14T23:48:20.978Z,99.90
2018-07-14T23:50:50.990Z,99.90
2018-07-14T23:53:20.062Z,99.90
2018-07-14T23:55:49.189Z,99.90
2018-07-14T23:58:18.326Z,99.90
